Terminal Aerodrome Forecast
Issued by NWS Sterling, VA

Current Version | Previous Version | Graphics & Text | Print | Product List | Glossary On
Versions: 1 2 3 4 5 6 7 8 9 10 11 12 13 14 15 16 17 18 19 20 21 22 23 24 25 26 27 28
000
FTUS41 KLWX 291720
TAFIAD
TAF
KIAD 291720Z 2918/3024 23007KT P6SM FEW050
     FM292200 19008KT P6SM SCT150
     FM300300 16004KT P6SM BKN110
     FM301400 18008KT P6SM BKN090
     FM301900 19011KT P6SM VCTS BKN050CB
     FM302200 20009KT P6SM BKN050=

USA.gov is the U.S. government's official web portal to all federal, state and local government web resources and services.